Time;durP1;ratioP1;P1;durP2;ratioP2;P2;SDS_P1;SDS_P2;PMS_P1;PMS_P2;Temp;Humidity;BMP_temperature;BMP_pressure;BME280_temperature;BME280_humidity;BME280_pressure;Samples;Min_cycle;Max_cycle;Signal;HPM_P1;HPM_P2
2022/03/21 00:02:04;;;;;;;21.90;13.02;;;;;;;-0.65;39.62;97179.69;5086585;28;20073;-65
2022/03/21 00:04:30;;;;;;;26.52;13.80;;;;;;;-0.61;39.95;97169.88;5086104;28;20039;-65
2022/03/21 00:06:56;;;;;;;26.45;13.43;;;;;;;-0.65;40.18;97180.56;5086398;28;20483;-65
2022/03/21 00:09:21;;;;;;;23.00;13.50;;;;;;;-0.66;40.02;97167.44;5086101;28;20051;-64
2022/03/21 00:11:47;;;;;;;27.67;14.00;;;;;;;-0.63;40.30;97175.22;5085891;28;20085;-65
2022/03/21 00:14:12;;;;;;;29.20;14.52;;;;;;;-0.68;40.67;97170.16;5085954;28;20036;-65
2022/03/21 00:16:39;;;;;;;33.38;15.70;;;;;;;-0.77;40.88;97170.50;5085430;28;20032;-65
2022/03/21 00:19:04;;;;;;;42.97;20.13;;;;;;;-0.98;41.27;97162.56;5086396;28;20043;-65
2022/03/21 00:21:30;;;;;;;35.00;16.75;;;;;;;-1.04;41.34;97170.72;5085912;28;20111;-65
2022/03/21 00:23:55;;;;;;;42.20;20.02;;;;;;;-1.14;42.46;97171.09;5085970;28;20046;-65
2022/03/21 00:26:21;;;;;;;35.95;17.65;;;;;;;-1.09;42.33;97164.75;5084486;28;20028;-65
2022/03/21 00:28:46;;;;;;;47.17;21.88;;;;;;;-1.16;42.78;97164.19;5085703;28;20032;-65
2022/03/21 00:31:12;;;;;;;42.13;20.42;;;;;;;-1.22;42.88;97170.53;5085697;28;20027;-65
2022/03/21 00:33:37;;;;;;;46.75;21.30;;;;;;;-1.29;43.69;97175.16;5084823;28;20028;-65
2022/03/21 00:36:05;;;;;;;42.90;21.73;;;;;;;-1.41;43.29;97166.00;5086196;28;20027;-65
2022/03/21 00:38:30;;;;;;;43.85;22.20;;;;;;;-1.47;44.05;97166.25;5085486;28;20020;-65
2022/03/21 00:40:56;;;;;;;45.67;24.05;;;;;;;-1.55;44.65;97163.03;5085786;28;20240;-65
2022/03/21 00:43:23;;;;;;;52.15;22.85;;;;;;;-1.66;45.02;97160.81;5067189;28;20034;-65
2022/03/21 00:45:52;;;;;;;55.55;24.55;;;;;;;-1.77;45.94;97159.44;5085422;28;20085;-65
2022/03/21 00:48:18;;;;;;;47.58;23.85;;;;;;;-1.91;46.20;97151.22;5085289;28;20032;-65
2022/03/21 00:50:44;;;;;;;51.22;25.00;;;;;;;-1.96;46.08;97164.53;5084975;28;20063;-66
2022/03/21 00:53:09;;;;;;;47.92;22.45;;;;;;;-2.00;46.01;97160.31;5085666;28;20053;-64
2022/03/21 00:55:34;;;;;;;55.83;24.02;;;;;;;-2.03;47.03;97155.16;5085470;28;20028;-65
2022/03/21 00:58:00;;;;;;;52.65;24.27;;;;;;;-2.02;46.89;97148.97;5085575;28;20027;-65
2022/03/21 01:00:27;;;;;;;45.33;22.25;;;;;;;-2.16;47.02;97147.69;5085056;28;20192;-65
2022/03/21 01:02:53;;;;;;;50.65;23.00;;;;;;;-2.09;46.69;97148.34;5085154;28;20081;-65
2022/03/21 01:05:19;;;;;;;50.60;21.77;;;;;;;-2.04;46.56;97145.53;5085053;28;20020;-64
2022/03/21 01:07:45;;;;;;;48.85;21.73;;;;;;;-2.08;46.63;97159.72;5084926;28;20105;-65
2022/03/21 01:10:14;;;;;;;48.33;22.60;;;;;;;-2.03;46.92;97153.38;5085249;28;20114;-65
2022/03/21 01:12:39;;;;;;;45.03;20.13;;;;;;;-2.08;46.63;97151.84;5084773;28;20507;-65
2022/03/21 01:15:06;;;;;;;42.47;19.10;;;;;;;-2.27;46.62;97152.47;5085782;28;20028;-65
2022/03/21 01:17:31;;;;;;;43.65;20.17;;;;;;;-2.41;46.62;97148.59;5084609;28;20391;-65
2022/03/21 01:19:56;;;;;;;43.95;19.42;;;;;;;-2.44;47.29;97147.84;5085250;28;20043;-65
2022/03/21 01:22:22;;;;;;;40.92;19.67;;;;;;;-2.38;47.61;97145.84;5085023;28;20166;-65
2022/03/21 01:24:47;;;;;;;43.88;19.73;;;;;;;-2.31;47.70;97135.13;5086655;28;20024;-65
2022/03/21 01:27:13;;;;;;;46.13;19.42;;;;;;;-2.32;47.26;97136.03;5091784;28;20077;-66
2022/03/21 01:29:38;;;;;;;37.25;19.35;;;;;;;-2.25;46.84;97132.25;5091601;28;20016;-66
2022/03/21 01:32:04;;;;;;;43.88;20.02;;;;;;;-2.32;46.93;97133.41;5091684;28;20034;-64
2022/03/21 01:34:29;;;;;;;40.35;19.33;;;;;;;-2.31;47.01;97129.84;5091287;28;20047;-65
2022/03/21 01:36:55;;;;;;;47.80;19.92;;;;;;;-2.40;47.46;97131.91;5092001;28;20448;-65
2022/03/21 01:39:20;;;;;;;36.40;17.75;;;;;;;-2.47;47.22;97135.66;5091515;28;20460;-65
2022/03/21 01:41:46;;;;;;;37.30;17.83;;;;;;;-2.53;47.62;97134.09;5092055;28;20051;-66
2022/03/21 01:44:12;;;;;;;42.28;19.02;;;;;;;-2.57;47.96;97129.00;5091050;28;20124;-65
2022/03/21 01:46:37;;;;;;;40.25;19.00;;;;;;;-2.58;48.20;97122.03;5091638;28;20036;-66
2022/03/21 01:49:04;;;;;;;47.15;19.92;;;;;;;-2.57;48.67;97118.50;5091200;28;20024;-66
2022/03/21 01:51:30;;;;;;;39.53;19.80;;;;;;;-2.63;48.43;97123.03;5091268;28;20796;-66
2022/03/21 01:56:40;;;;;;;43.70;19.70;;;;;;;-2.62;48.24;97109.03;5091267;28;20410;-65
2022/03/21 01:59:07;;;;;;;34.10;19.27;;;;;;;-2.64;48.49;97118.72;5091583;28;20024;-65
2022/03/21 02:01:32;;;;;;;43.65;21.13;;;;;;;-2.55;48.64;97112.28;5091254;28;20032;-65
2022/03/21 02:03:58;;;;;;;41.67;20.02;;;;;;;-2.58;48.58;97115.03;5091268;28;20089;-65
2022/03/21 02:06:24;;;;;;;40.65;19.42;;;;;;;-2.53;48.00;97117.50;5091647;28;20332;-65
2022/03/21 02:08:49;;;;;;;42.90;20.38;;;;;;;-2.59;48.75;97113.28;5073084;28;20456;-65
2022/03/21 02:11:15;;;;;;;42.45;21.30;;;;;;;-2.62;49.12;97113.41;5090168;28;20024;-65
2022/03/21 02:13:41;;;;;;;47.15;21.25;;;;;;;-2.62;48.63;97121.28;5091008;28;20024;-65
2022/03/21 02:16:06;;;;;;;49.63;21.63;;;;;;;-2.68;48.39;97119.75;5091435;28;20492;-65
2022/03/21 02:18:32;;;;;;;42.55;19.48;;;;;;;-2.69;49.30;97118.00;5091213;28;20031;-65
2022/03/21 02:20:57;;;;;;;45.38;20.60;;;;;;;-2.69;48.58;97123.25;5073469;28;20433;-65
2022/03/21 02:23:49;;;;;;;43.20;20.63;;;;;;;-2.81;48.00;97113.19;5072577;28;20414;-65
2022/03/21 02:26:15;;;;;;;37.80;19.77;;;;;;;-2.90;48.62;97117.84;5078667;28;20039;-65
2022/03/21 02:28:40;;;;;;;38.00;19.77;;;;;;;-2.90;48.70;97120.47;5091678;28;20017;-66
2022/03/21 02:31:06;;;;;;;42.10;19.92;;;;;;;-2.93;49.26;97124.94;5089291;28;20077;-65
2022/03/21 02:33:31;;;;;;;47.97;21.58;;;;;;;-2.88;49.09;97123.91;5090145;28;20039;-64
2022/03/21 02:35:56;;;;;;;35.20;18.33;;;;;;;-2.88;48.54;97123.91;5089378;28;20117;-64
2022/03/21 02:38:22;;;;;;;34.90;16.80;;;;;;;-2.84;48.38;97118.53;5069522;28;20403;-65
2022/03/21 02:40:47;;;;;;;37.72;16.77;;;;;;;-2.87;48.03;97125.59;5069794;28;20113;-65
2022/03/21 02:43:13;;;;;;;34.05;17.13;;;;;;;-2.79;47.87;97135.00;5087419;28;20472;-65
2022/03/21 02:45:40;;;;;;;36.85;17.50;;;;;;;-2.80;48.99;97133.28;5087911;28;20032;-65
2022/03/21 02:48:06;;;;;;;40.00;19.27;;;;;;;-2.94;49.59;97139.00;5087328;28;20340;-65
2022/03/21 02:50:56;;;;;;;35.67;17.20;;;;;;;-2.96;49.28;97136.44;5087870;28;20028;-65
2022/03/21 02:53:21;;;;;;;36.33;18.08;;;;;;;-3.11;50.01;97138.66;5087619;28;20051;-66
2022/03/21 02:55:47;;;;;;;30.73;16.92;;;;;;;-3.15;49.71;97144.03;5087530;28;20553;-66
2022/03/21 02:58:12;;;;;;;31.88;16.50;;;;;;;-3.22;50.22;97138.13;5087223;28;20040;-66
2022/03/21 03:00:38;;;;;;;36.65;18.27;;;;;;;-3.24;49.73;97142.59;5087160;28;20426;-67
2022/03/21 03:03:04;;;;;;;36.17;16.88;;;;;;;-3.32;49.65;97134.94;5086270;28;20414;-66
2022/03/21 03:05:29;;;;;;;32.28;16.05;;;;;;;-3.29;50.23;97142.72;5086896;28;20486;-66
2022/03/21 03:07:54;;;;;;;32.83;17.08;;;;;;;-3.33;50.43;97140.25;5087742;28;20021;-64
2022/03/21 03:10:20;;;;;;;30.50;15.45;;;;;;;-3.31;49.22;97135.81;5086828;28;20036;-64
2022/03/21 03:12:45;;;;;;;30.55;14.35;;;;;;;-3.30;49.51;97137.50;5087366;28;20024;-65
2022/03/21 03:15:11;;;;;;;33.50;15.65;;;;;;;-3.28;49.27;97139.19;5087013;28;20510;-65
2022/03/21 03:17:36;;;;;;;36.75;15.95;;;;;;;-3.28;50.12;97139.19;5087177;28;20589;-65
2022/03/21 03:20:01;;;;;;;30.88;15.43;;;;;;;-3.30;50.73;97134.88;5087324;28;20502;-65
2022/03/21 03:22:27;;;;;;;33.38;16.65;;;;;;;-3.39;50.68;97134.28;5086590;28;20482;-65
2022/03/21 03:24:52;;;;;;;36.35;17.08;;;;;;;-3.40;50.05;97137.81;5069207;28;20606;-65
2022/03/21 03:27:18;;;;;;;34.38;16.30;;;;;;;-3.41;50.30;97141.34;5086757;28;20024;-65
2022/03/21 03:29:43;;;;;;;38.47;16.35;;;;;;;-3.43;50.17;97129.19;5087090;28;20028;-65
2022/03/21 03:32:09;;;;;;;33.30;15.60;;;;;;;-3.53;50.31;97134.72;5086737;28;20383;-65
2022/03/21 03:34:34;;;;;;;30.65;14.43;;;;;;;-3.49;49.95;97130.22;5085306;28;20051;-65
2022/03/21 03:36:59;;;;;;;28.08;14.38;;;;;;;-3.56;50.78;97133.97;5086892;28;20046;-65
2022/03/21 03:39:25;;;;;;;32.60;15.45;;;;;;;-3.56;50.89;97132.19;5086459;28;20024;-65
2022/03/21 03:41:51;;;;;;;39.28;15.70;;;;;;;-3.61;51.05;97131.50;5086866;28;20474;-65
2022/03/21 03:44:17;;;;;;;31.08;15.85;;;;;;;-3.58;50.82;97127.91;5086099;28;20031;-66
2022/03/21 03:46:45;;;;;;;35.72;16.15;;;;;;;-3.64;51.07;97132.44;5086961;28;20024;-65
2022/03/21 03:49:11;;;;;;;30.52;13.45;;;;;;;-3.63;51.13;97136.75;5085817;28;20092;-65
2022/03/21 03:51:36;;;;;;;34.65;15.10;;;;;;;-3.64;50.76;97135.03;5086589;28;20083;-65
2022/03/21 03:54:01;;;;;;;31.27;15.05;;;;;;;-3.61;51.04;97134.94;5085179;28;20407;-66
2022/03/21 03:56:28;;;;;;;29.00;15.75;;;;;;;-3.60;50.90;97136.69;5086361;28;20583;-65
2022/03/21 03:58:53;;;;;;;27.85;15.07;;;;;;;-3.65;51.11;97127.22;5086445;28;20028;-65
2022/03/21 04:01:19;;;;;;;30.52;14.48;;;;;;;-3.59;50.87;97127.03;5086504;28;20682;-65
2022/03/21 04:03:44;;;;;;;27.50;14.35;;;;;;;-3.64;50.76;97128.94;5086451;28;20059;-66
2022/03/21 04:06:10;;;;;;;28.15;14.23;;;;;;;-3.66;51.64;97126.34;5086045;28;20028;-65
2022/03/21 04:08:36;;;;;;;29.60;15.63;;;;;;;-3.65;51.33;97121.97;5086673;28;20040;-64
2022/03/21 04:11:01;;;;;;;32.15;16.08;;;;;;;-3.72;51.63;97127.41;5086073;28;20032;-66
2022/03/21 04:13:27;;;;;;;29.55;16.85;;;;;;;-3.72;51.32;97110.81;5086206;28;20036;-66
2022/03/21 04:15:52;;;;;;;27.65;14.13;;;;;;;-3.65;50.87;97114.13;5085653;28;20352;-65
2022/03/21 04:18:18;;;;;;;30.05;15.20;;;;;;;-3.66;51.86;97115.88;5086055;28;20024;-65
2022/03/21 04:20:43;;;;;;;28.70;15.48;;;;;;;-3.66;51.92;97115.88;5086144;28;20024;-68
2022/03/21 04:23:09;;;;;;;38.35;16.85;;;;;;;-3.65;51.53;97109.72;5085540;28;20537;-64
2022/03/21 04:25:35;;;;;;;32.60;16.73;;;;;;;-3.71;52.80;97120.41;5086023;28;20055;-64
2022/03/21 04:28:07;;;;;;;29.27;15.93;;;;;;;-3.73;52.10;97119.59;5085458;28;20060;-64
2022/03/21 04:30:32;;;;;;;39.65;17.65;;;;;;;-3.67;51.32;97118.53;5086062;28;20044;-64
2022/03/21 04:32:58;;;;;;;34.55;15.80;;;;;;;-3.66;52.13;97118.50;5085571;28;20028;-65
2022/03/21 04:35:23;;;;;;;35.35;16.02;;;;;;;-3.56;51.86;97116.44;5085558;28;20495;-64
2022/03/21 04:37:49;;;;;;;28.42;15.00;;;;;;;-3.54;50.45;97112.00;5085684;28;20020;-64
2022/03/21 04:40:14;;;;;;;31.40;14.55;;;;;;;-3.53;51.58;97121.59;5085456;28;20028;-66
2022/03/21 04:42:40;;;;;;;29.02;15.82;;;;;;;-3.50;52.20;97112.78;5085580;28;20509;-66
2022/03/21 04:45:06;;;;;;;30.65;14.77;;;;;;;-3.57;51.93;97112.13;5083574;28;20036;-64
2022/03/21 04:47:31;;;;;;;32.25;17.05;;;;;;;-3.58;52.54;97120.03;5085938;28;20567;-66
2022/03/21 04:49:57;;;;;;;29.60;16.50;;;;;;;-3.50;51.96;97120.66;5085264;28;20036;-65
2022/03/21 04:52:23;;;;;;;41.53;15.70;;;;;;;-3.39;51.10;97113.31;5085604;28;20061;-65
2022/03/21 04:54:48;;;;;;;29.08;13.93;;;;;;;-3.31;50.36;97115.69;5085078;28;20059;-66
2022/03/21 04:57:13;;;;;;;36.08;16.85;;;;;;;-3.28;50.56;97115.59;5085589;28;20036;-65
2022/03/21 04:59:39;;;;;;;27.25;13.43;;;;;;;-3.29;49.54;97119.09;5084816;28;20043;-66
2022/03/21 05:02:04;;;;;;;25.70;15.18;;;;;;;-3.27;49.62;97124.28;5085020;28;20039;-64
2022/03/21 05:04:31;;;;;;;33.53;17.63;;;;;;;-3.27;50.05;97121.66;5085790;28;20020;-65
2022/03/21 05:06:57;;;;;;;30.42;16.10;;;;;;;-3.16;49.44;97122.19;5084970;28;20122;-65
2022/03/21 05:09:22;;;;;;;37.65;18.02;;;;;;;-3.09;49.64;97130.72;5085422;28;20017;-67
2022/03/21 05:11:48;;;;;;;40.10;18.35;;;;;;;-2.96;49.41;97131.19;5084751;28;20031;-65
2022/03/21 05:14:13;;;;;;;39.50;18.92;;;;;;;-2.83;49.58;97126.38;5084994;28;20036;-65
2022/03/21 05:16:39;;;;;;;36.10;17.70;;;;;;;-2.63;48.33;97130.94;5085116;28;20024;-66
2022/03/21 05:19:04;;;;;;;36.05;17.70;;;;;;;-2.64;48.73;97126.59;5084559;28;20028;-66
2022/03/21 05:21:30;;;;;;;32.97;17.20;;;;;;;-2.60;48.70;97132.63;5085467;28;20028;-66
2022/03/21 05:32:25;;;;;;;36.25;17.58;;;;;;;-2.11;47.94;97134.38;5022154;28;20041;-65
2022/03/21 05:37:34;;;;;;;33.17;17.70;;;;;;;-1.76;47.52;97136.63;5084935;28;20042;-66
2022/03/21 05:42:44;;;;;;;33.20;18.08;;;;;;;-1.46;47.68;97136.34;5085179;28;20039;-65
2022/03/21 05:45:09;;;;;;;37.75;18.40;;;;;;;-1.20;48.61;97142.38;5084298;28;20028;-65
2022/03/21 05:48:50;;;;;;;34.90;18.02;;;;;;;-1.11;47.25;97133.22;5085184;28;20111;-65
2022/03/21 05:50:20;;;;;;;35.10;18.38;;;;;;;-0.94;46.41;97132.56;5084236;28;20457;-64
2022/03/21 05:52:46;;;;;;;43.80;19.60;;;;;;;-0.77;46.70;97141.50;5085102;28;20024;-66
2022/03/21 05:55:12;;;;;;;40.33;18.58;;;;;;;-0.53;46.74;97137.00;5084365;28;20364;-65
2022/03/21 05:57:37;;;;;;;34.40;18.25;;;;;;;-0.41;46.93;97134.75;5084801;28;20039;-65
2022/03/21 06:00:21;;;;;;;47.45;18.15;;;;;;;-0.28;46.63;97138.59;5084793;28;20027;-65
2022/03/21 06:02:48;;;;;;;37.10;19.90;;;;;;;-0.09;46.66;97134.25;5084289;28;20024;-67
2022/03/21 06:05:13;;;;;;;31.83;18.27;;;;;;;0.05;46.08;97141.56;5085138;28;20021;-65
2022/03/21 06:07:39;;;;;;;35.83;18.02;;;;;;;0.18;45.22;97147.97;5084459;28;20025;-65
2022/03/21 06:10:04;;;;;;;36.22;19.52;;;;;;;0.31;45.16;97143.00;5084485;28;20024;-64
2022/03/21 06:12:30;;;;;;;36.17;17.75;;;;;;;0.51;45.06;97135.94;5087293;28;20028;-64
2022/03/21 06:14:56;;;;;;;44.72;19.38;;;;;;;0.78;43.77;97134.69;5088378;28;20107;-65
2022/03/21 06:17:21;;;;;;;37.15;19.90;;;;;;;0.89;43.36;97139.47;5088172;28;20032;-66
2022/03/21 06:19:47;;;;;;;40.55;19.00;;;;;;;1.06;43.21;97143.94;5088517;28;20051;-65
2022/03/21 06:22:13;;;;;;;35.22;19.10;;;;;;;1.27;42.18;97139.38;5088413;28;20040;-64
2022/03/21 06:24:38;;;;;;;29.70;16.23;;;;;;;1.53;42.56;97142.47;5087893;28;20128;-65
2022/03/21 06:27:04;;;;;;;29.92;14.82;;;;;;;1.82;41.15;97134.81;5088461;28;20404;-65
2022/03/21 06:29:29;;;;;;;28.52;15.10;;;;;;;1.93;40.17;97136.91;5087647;28;20028;-64
2022/03/21 06:31:55;;;;;;;25.65;15.05;;;;;;;2.05;40.23;97139.81;5088591;28;20028;-64
2022/03/21 06:34:20;;;;;;;28.17;15.82;;;;;;;2.14;40.44;97146.44;5087524;28;20086;-65
2022/03/21 06:36:45;;;;;;;27.65;16.15;;;;;;;2.45;40.14;97142.16;5088093;28;20032;-65
2022/03/21 06:39:11;;;;;;;29.92;15.13;;;;;;;2.71;40.68;97134.53;5088041;28;20031;-65
2022/03/21 06:41:37;;;;;;;34.28;15.77;;;;;;;2.74;40.16;97134.34;5087704;28;20027;-64
2022/03/21 06:44:03;;;;;;;31.67;17.35;;;;;;;2.97;39.86;97133.06;5088235;28;20021;-64
2022/03/21 06:46:28;;;;;;;31.45;16.52;;;;;;;3.19;39.06;97128.34;5087505;28;20039;-65
2022/03/21 06:48:54;;;;;;;28.95;16.50;;;;;;;3.41;38.63;97125.28;5087730;28;20024;-65
2022/03/21 06:51:19;;;;;;;27.20;15.65;;;;;;;3.56;37.92;97128.81;5087743;28;20036;-65
2022/03/21 06:53:45;;;;;;;31.13;16.52;;;;;;;3.70;37.10;97119.19;5087608;28;20555;-67
2022/03/21 06:56:10;;;;;;;31.65;17.25;;;;;;;3.89;37.07;97118.91;5087736;28;20504;-65
2022/03/21 06:58:36;;;;;;;32.08;17.67;;;;;;;4.17;36.10;97121.69;5087036;28;20468;-64
2022/03/21 07:01:01;;;;;;;29.85;16.63;;;;;;;4.30;35.36;97122.63;5087916;28;20085;-65
2022/03/21 07:03:26;;;;;;;30.50;17.65;;;;;;;4.41;34.98;97124.63;5086858;28;20081;-65
2022/03/21 07:05:52;;;;;;;28.77;17.05;;;;;;;4.56;34.42;97133.41;5087823;28;20032;-64
2022/03/21 07:08:17;;;;;;;32.00;17.98;;;;;;;4.73;34.86;97115.53;5087395;28;20411;-64
2022/03/21 07:10:44;;;;;;;39.83;20.23;;;;;;;4.90;33.26;97114.44;5087461;28;20459;-65
2022/03/21 07:13:09;;;;;;;33.67;19.25;;;;;;;4.99;33.35;97118.31;5087408;28;20080;-65
2022/03/21 07:15:35;;;;;;;31.50;18.73;;;;;;;5.11;33.17;97113.13;5086963;28;20024;-65
2022/03/21 07:18:00;;;;;;;30.27;18.75;;;;;;;5.13;33.11;97100.56;5087496;28;20031;-65
2022/03/21 07:20:26;;;;;;;36.60;19.13;;;;;;;5.18;33.62;97101.13;5086430;28;20027;-65
2022/03/21 07:22:55;;;;;;;30.63;18.23;;;;;;;5.26;33.71;97100.59;5086814;28;20468;-65
2022/03/21 07:25:21;;;;;;;28.27;17.10;;;;;;;5.39;32.50;97100.66;5087019;28;20031;-65
2022/03/21 07:27:46;;;;;;;31.30;18.60;;;;;;;5.55;32.25;97111.09;5087005;28;20028;-65
2022/03/21 07:30:12;;;;;;;36.28;19.33;;;;;;;5.67;31.27;97098.78;5086961;28;20101;-65
2022/03/21 07:32:39;;;;;;;26.63;16.30;;;;;;;5.90;31.30;97093.69;5086778;28;20052;-65
2022/03/21 07:35:04;;;;;;;26.60;15.88;;;;;;;5.84;30.41;97091.44;5086650;28;20055;-64
2022/03/21 07:37:49;;;;;;;28.90;15.77;;;;;;;5.92;29.79;97091.75;5086490;28;20020;-65
2022/03/21 07:40:15;;;;;;;24.48;15.00;;;;;;;6.08;29.86;97086.22;5085850;28;20024;-65
2022/03/21 07:42:41;;;;;;;27.17;15.80;;;;;;;6.15;30.04;97086.66;5086430;28;20031;-65
2022/03/21 07:47:51;;;;;;;37.38;19.13;;;;;;;6.36;29.34;97083.44;5085632;28;20404;-64
2022/03/21 07:50:18;;;;;;;34.10;18.27;;;;;;;6.53;28.41;97077.75;5086277;28;20109;-65
2022/03/21 07:52:43;;;;;;;28.08;17.40;;;;;;;6.62;28.22;97073.56;5086471;28;20551;-65
2022/03/21 07:55:09;;;;;;;28.48;15.95;;;;;;;6.76;28.11;97072.56;5086176;28;20024;-65
2022/03/21 07:57:34;;;;;;;25.73;15.38;;;;;;;6.77;27.60;97068.06;5086637;28;20032;-65
2022/03/21 07:59:59;;;;;;;29.60;14.73;;;;;;;6.79;28.32;97064.31;5086129;28;20236;-65
2022/03/21 08:02:27;;;;;;;20.55;12.70;;;;;;;6.96;28.09;97070.25;5086389;28;20024;-65
2022/03/21 08:04:52;;;;;;;18.25;12.82;;;;;;;7.01;27.98;97065.38;5086261;28;20036;-65
2022/03/21 08:07:17;;;;;;;15.20;10.00;;;;;;;7.02;26.43;97058.25;5086351;28;20031;-64
2022/03/21 08:09:43;;;;;;;17.83;10.48;;;;;;;7.00;26.91;97053.03;5086243;28;20032;-65
2022/03/21 08:12:10;;;;;;;14.65;9.77;;;;;;;7.08;27.21;97054.28;5085902;28;20032;-64
2022/03/21 08:14:36;;;;;;;15.00;10.60;;;;;;;7.20;26.85;97056.03;5086448;28;20031;-66
2022/03/21 08:17:04;;;;;;;20.52;10.18;;;;;;;7.32;27.08;97050.72;5085744;28;20028;-64
2022/03/21 08:19:30;;;;;;;15.85;10.20;;;;;;;7.02;27.15;97053.78;5086338;28;20028;-64
2022/03/21 08:21:55;;;;;;;17.98;10.20;;;;;;;7.16;26.82;97050.06;5085555;28;20032;-65
2022/03/21 08:24:21;;;;;;;19.90;11.77;;;;;;;7.28;27.28;97047.44;5086032;28;20016;-65
2022/03/21 08:26:47;;;;;;;20.13;11.50;;;;;;;7.38;28.22;97044.91;5085584;28;20494;-66
2022/03/21 08:29:13;;;;;;;17.52;11.18;;;;;;;7.16;27.23;97054.53;5085417;28;20036;-65
2022/03/21 08:31:38;;;;;;;16.42;10.50;;;;;;;7.17;27.05;97050.91;5085968;28;20434;-64
2022/03/21 08:34:03;;;;;;;18.33;10.90;;;;;;;7.25;27.26;97045.84;5085208;28;20044;-65
2022/03/21 08:36:30;;;;;;;19.85;11.23;;;;;;;7.14;27.45;97046.66;5086421;28;20020;-64
2022/03/21 08:38:55;;;;;;;14.18;10.60;;;;;;;7.34;27.63;97040.75;5085222;28;20454;-65
2022/03/21 08:41:21;;;;;;;17.65;10.82;;;;;;;7.33;26.94;97041.75;5085858;28;20028;-65
2022/03/21 08:43:47;;;;;;;17.77;11.55;;;;;;;7.23;27.97;97038.91;5085325;28;20036;-64
2022/03/21 08:46:13;;;;;;;18.90;12.50;;;;;;;7.23;28.64;97038.91;5085811;28;20050;-64
2022/03/21 08:51:26;;;;;;;19.30;11.27;;;;;;;7.32;28.00;97026.72;5055973;28;20067;-65
2022/03/21 08:53:52;;;;;;;18.13;9.90;;;;;;;7.13;27.54;97028.09;5085610;28;20032;-65
2022/03/21 08:56:17;;;;;;;16.15;8.40;;;;;;;7.06;27.82;97017.03;5085785;28;20050;-64
2022/03/21 08:58:43;;;;;;;13.70;9.35;;;;;;;6.65;27.83;97025.34;5085383;28;20024;-65
2022/03/21 09:01:08;;;;;;;30.77;9.85;;;;;;;6.77;28.73;97018.25;5084885;28;20020;-65
2022/03/21 09:03:34;;;;;;;13.00;8.68;;;;;;;6.46;28.64;97028.50;5085100;28;20630;-64
2022/03/21 09:05:59;;;;;;;23.48;8.15;;;;;;;6.39;28.19;97014.78;5085113;28;20027;-65
2022/03/21 09:08:25;;;;;;;13.27;8.38;;;;;;;6.31;28.90;97027.78;5085344;28;20031;-66
2022/03/21 09:10:52;;;;;;;13.48;8.43;;;;;;;6.26;28.73;97017.47;5085373;28;20035;-64
2022/03/21 09:13:17;;;;;;;19.10;8.68;;;;;;;6.28;29.88;97033.34;5084837;28;20024;-65
2022/03/21 09:15:43;;;;;;;12.82;8.38;;;;;;;6.38;29.28;97029.06;5085171;28;20021;-65
2022/03/21 09:18:08;;;;;;;18.52;8.70;;;;;;;6.35;29.08;97028.44;5084917;28;20027;-65
2022/03/21 09:20:34;;;;;;;15.75;9.23;;;;;;;6.40;29.32;97032.47;5085048;28;20027;-65
2022/03/21 09:22:59;;;;;;;17.40;9.38;;;;;;;6.22;29.09;97025.81;5084898;28;20456;-65
2022/03/21 09:25:24;;;;;;;14.98;9.02;;;;;;;6.45;29.29;97026.78;5084918;28;20081;-65
2022/03/21 09:27:50;;;;;;;16.05;8.88;;;;;;;6.38;29.10;97028.22;5085839;28;20023;-65
2022/03/21 09:30:16;;;;;;;15.57;9.13;;;;;;;6.50;29.23;97021.13;5084442;28;20021;-64
2022/03/21 09:32:42;;;;;;;12.57;8.35;;;;;;;6.39;28.66;97029.91;5085791;28;20020;-64
2022/03/21 09:35:07;;;;;;;14.32;8.82;;;;;;;6.59;29.32;97003.63;5084521;28;20040;-64
2022/03/21 09:37:33;;;;;;;18.23;9.30;;;;;;;6.57;29.49;97016.19;5085200;28;20063;-65
2022/03/21 09:39:59;;;;;;;19.35;9.45;;;;;;;6.73;29.49;97010.59;5084370;28;20035;-64
2022/03/21 09:42:25;;;;;;;15.15;9.80;;;;;;;6.80;29.26;97004.66;5084781;28;20020;-64
2022/03/21 09:44:53;;;;;;;14.50;8.88;;;;;;;6.85;28.65;97009.66;5085101;28;20059;-64
2022/03/21 09:50:05;;;;;;;15.73;8.57;;;;;;;6.53;29.25;97003.09;5088302;28;20038;-66
2022/03/21 09:52:30;;;;;;;17.15;9.40;;;;;;;6.52;29.53;97014.72;5087304;28;20036;-65
2022/03/21 09:54:56;;;;;;;15.65;8.80;;;;;;;6.40;30.16;97021.78;5071125;28;20016;-65
2022/03/21 09:57:21;;;;;;;13.18;8.55;;;;;;;6.49;29.12;97006.97;5087138;28;20024;-65
2022/03/21 09:59:46;;;;;;;18.15;10.40;;;;;;;6.36;29.73;97003.47;5087106;28;20024;-65
2022/03/21 10:02:16;;;;;;;14.63;9.98;;;;;;;6.33;29.70;97009.91;5088896;28;20087;-65
2022/03/21 10:04:42;;;;;;;15.32;9.90;;;;;;;6.46;28.87;97004.53;5088292;28;20024;-65
2022/03/21 10:07:07;;;;;;;13.00;8.75;;;;;;;6.22;29.62;97008.00;5087765;28;20028;-65
2022/03/21 10:09:33;;;;;;;13.75;8.90;;;;;;;6.39;29.29;97011.25;5088251;28;20505;-65
2022/03/21 10:11:58;;;;;;;26.50;8.90;;;;;;;6.28;29.00;97004.03;5088630;28;20036;-65
2022/03/21 10:14:24;;;;;;;16.05;8.52;;;;;;;6.19;28.57;97008.19;5088080;28;20028;-65
2022/03/21 10:17:00;;;;;;;18.25;9.18;;;;;;;6.18;28.34;96993.19;5088598;28;20032;-66
2022/03/21 10:19:26;;;;;;;14.98;8.80;;;;;;;6.28;30.15;96996.91;5088561;28;20088;-65
2022/03/21 10:22:01;;;;;;;17.10;9.13;;;;;;;6.38;29.33;96993.56;5088385;28;20382;-64
2022/03/21 10:24:26;;;;;;;18.50;9.48;;;;;;;6.46;29.60;96983.19;5088462;28;20032;-65
2022/03/21 10:26:53;;;;;;;22.17;9.32;;;;;;;6.45;29.92;96997.47;5087981;28;20038;-65
2022/03/21 10:29:19;;;;;;;20.25;9.82;;;;;;;6.46;29.69;96996.53;5087908;28;20104;-64
2022/03/21 10:31:46;;;;;;;18.27;10.57;;;;;;;6.74;30.04;96989.13;5088019;28;20028;-65
2022/03/21 10:34:34;;;;;;;14.40;9.32;;;;;;;6.67;28.99;96991.41;5087894;28;20036;-64
2022/03/21 10:37:04;;;;;;;16.58;9.05;;;;;;;6.67;29.76;96988.72;5088408;28;20051;-65
2022/03/21 10:39:31;;;;;;;18.73;10.35;;;;;;;6.75;29.25;96988.19;5087129;28;20032;-65
2022/03/21 10:41:58;;;;;;;21.00;10.80;;;;;;;6.89;29.51;96989.81;5088392;28;20052;-65
2022/03/21 10:44:24;;;;;;;17.95;10.55;;;;;;;6.91;29.39;96992.38;5087542;28;20028;-65
2022/03/21 10:46:53;;;;;;;17.65;10.02;;;;;;;6.93;29.43;96993.09;5088344;28;20073;-64
2022/03/21 10:49:43;;;;;;;18.15;9.30;;;;;;;6.84;29.30;96980.44;5087581;28;20085;-65
2022/03/21 10:52:14;;;;;;;15.07;9.20;;;;;;;6.97;28.87;96981.22;5087600;28;20551;-65
2022/03/21 10:54:40;;;;;;;16.60;9.75;;;;;;;6.79;28.75;96965.66;5086763;28;20055;-65
2022/03/21 10:57:07;;;;;;;15.00;9.75;;;;;;;6.63;29.12;96973.09;5085521;28;20032;-65
2022/03/21 10:59:33;;;;;;;16.77;10.35;;;;;;;6.75;28.82;96968.66;5086901;28;20052;-65
2022/03/21 11:02:11;;;;;;;16.65;9.65;;;;;;;6.70;28.94;96966.34;5087421;28;20462;-65
2022/03/21 11:04:36;;;;;;;17.13;9.95;;;;;;;6.46;29.03;96961.00;5087065;28;20101;-65
2022/03/21 11:07:01;;;;;;;19.67;10.38;;;;;;;6.64;29.08;96950.81;5086227;28;20482;-65
2022/03/21 11:09:27;;;;;;;16.00;9.35;;;;;;;6.78;28.96;96958.63;5068787;28;20493;-65
2022/03/21 11:11:52;;;;;;;17.40;9.75;;;;;;;6.75;28.20;96950.00;5069769;28;20089;-65
2022/03/21 11:14:18;;;;;;;16.98;9.85;;;;;;;6.68;29.22;96950.47;5087035;28;20028;-65
2022/03/21 11:16:43;;;;;;;19.15;10.07;;;;;;;6.63;29.47;96959.75;5069164;28;20145;-65
2022/03/21 11:19:09;;;;;;;15.18;8.95;;;;;;;6.66;28.80;96944.38;5085667;28;20028;-65
2022/03/21 11:21:34;;;;;;;15.60;9.10;;;;;;;6.69;29.75;96943.28;5086983;28;20028;-66
2022/03/21 11:24:00;;;;;;;15.60;9.70;;;;;;;6.63;28.91;96938.41;5085750;28;20089;-65
2022/03/21 11:26:34;;;;;;;14.25;9.50;;;;;;;6.78;28.93;96942.63;5068622;28;20035;-65
2022/03/21 11:29:16;;;;;;;12.93;8.85;;;;;;;6.92;28.72;96938.03;5087631;28;20067;-65
2022/03/21 11:32:09;;;;;;;13.90;9.48;;;;;;;6.97;29.09;96927.88;5086509;28;20542;-64
2022/03/21 11:34:55;;;;;;;14.32;9.23;;;;;;;6.92;29.00;96927.38;5086769;28;20044;-65
2022/03/21 11:37:31;;;;;;;15.70;10.05;;;;;;;7.08;27.87;96923.56;5085842;28;20081;-65
2022/03/21 11:40:24;;;;;;;15.95;9.40;;;;;;;7.04;28.18;96918.41;5086545;28;20051;-65
2022/03/21 11:42:49;;;;;;;15.68;9.10;;;;;;;6.90;28.71;96916.00;5086857;28;20036;-65
2022/03/21 11:45:25;;;;;;;19.50;10.20;;;;;;;6.93;28.73;96911.25;5086753;28;20419;-64